createdAt,value
2019-04-28T00:01:42.022Z,3.57
2019-04-28T00:07:50.560Z,4.53
2019-04-28T00:13:56.547Z,4.13
2019-04-28T00:20:04.256Z,4.50
2019-04-28T00:26:24.613Z,4.90
2019-04-28T00:32:32.498Z,3.93
2019-04-28T00:38:38.343Z,4.07
2019-04-28T00:44:44.303Z,4.03
2019-04-28T00:50:51.971Z,3.67
2019-04-28T00:56:58.406Z,4.00
2019-04-28T01:03:04.353Z,4.37
2019-04-28T01:09:11.844Z,3.50
2019-04-28T01:15:39.671Z,3.80
2019-04-28T01:22:03.447Z,4.43
2019-04-28T01:28:09.833Z,4.23
2019-04-28T01:34:24.307Z,4.80
2019-04-28T01:40:30.505Z,4.27
2019-04-28T01:46:36.712Z,4.17
2019-04-28T01:52:42.892Z,4.40
2019-04-28T01:58:49.928Z,4.10
2019-04-28T02:04:56.666Z,4.50
2019-04-28T02:11:03.251Z,4.53
2019-04-28T02:17:10.515Z,4.27
2019-04-28T02:23:22.138Z,3.90
2019-04-28T02:29:29.881Z,4.60
2019-04-28T02:35:35.608Z,4.57
2019-04-28T02:41:41.774Z,4.63
2019-04-28T02:47:48.069Z,4.20
2019-04-28T02:53:55.913Z,4.20
2019-04-28T03:00:01.898Z,4.37
2019-04-28T03:06:10.238Z,4.40
2019-04-28T03:12:15.662Z,3.43
2019-04-28T03:18:21.676Z,4.67
2019-04-28T03:24:27.739Z,3.73
2019-04-28T03:31:36.597Z,3.60
2019-04-28T03:37:15.337Z,4.13
2019-04-28T03:43:21.452Z,3.67
2019-04-28T03:49:34.998Z,4.63
2019-04-28T03:55:41.654Z,4.43
2019-04-28T04:01:56.698Z,4.00
2019-04-28T04:07:55.508Z,3.80
2019-04-28T04:14:12.662Z,3.63
2019-04-28T04:20:23.739Z,3.60
2019-04-28T04:26:31.077Z,3.37
2019-04-28T04:32:37.567Z,3.83
2019-04-28T04:38:46.221Z,4.07
2019-04-28T04:44:51.029Z,4.27
2019-04-28T04:50:57.736Z,4.20
2019-04-28T04:57:03.876Z,3.60
2019-04-28T05:03:14.863Z,4.40
2019-04-28T05:09:20.771Z,4.20
2019-04-28T05:15:26.739Z,3.97
2019-04-28T05:21:33.440Z,4.10
2019-04-28T05:27:39.969Z,3.60
2019-04-28T05:33:46.047Z,4.03
2019-04-28T05:39:52.645Z,4.03
2019-04-28T05:46:00.294Z,3.73
2019-04-28T05:52:56.723Z,3.37
2019-04-28T05:59:09.650Z,4.00
2019-04-28T06:05:15.534Z,4.17
2019-04-28T06:11:35.572Z,3.57
2019-04-28T06:17:41.528Z,3.70
2019-04-28T06:23:48.320Z,4.07
2019-04-28T06:29:54.218Z,3.73
2019-04-28T06:36:00.119Z,4.07
2019-04-28T06:42:06.233Z,3.77
2019-04-28T06:48:12.011Z,3.73
2019-04-28T06:54:17.895Z,4.10
2019-04-28T07:00:23.664Z,3.20
2019-04-28T07:06:30.177Z,3.20
2019-04-28T07:12:36.522Z,3.73
2019-04-28T07:18:42.366Z,3.43
2019-04-28T07:24:48.897Z,4.03
2019-04-28T07:30:54.768Z,3.63
2019-04-28T07:37:00.724Z,4.30
2019-04-28T07:43:06.979Z,3.93
2019-04-28T07:49:13.720Z,4.50
2019-04-28T07:55:19.764Z,5.10
2019-04-28T08:01:26.350Z,4.80
2019-04-28T08:07:32.208Z,4.67
2019-04-28T08:13:38.109Z,4.13
2019-04-28T08:19:43.895Z,4.57
2019-04-28T08:25:49.653Z,4.67
2019-04-28T08:32:02.372Z,4.23
2019-04-28T08:38:08.216Z,4.37
2019-04-28T08:44:14.162Z,4.53
2019-04-28T08:50:20.047Z,3.80
2019-04-28T08:56:25.831Z,4.60
2019-04-28T09:02:31.915Z,3.50
2019-04-28T09:08:39.303Z,2.97
2019-04-28T09:14:45.176Z,3.30
2019-04-28T09:20:51.369Z,2.63
2019-04-28T09:26:57.444Z,3.00
2019-04-28T09:33:03.418Z,3.13
2019-04-28T09:39:11.725Z,2.90
2019-04-28T09:45:20.920Z,3.17
2019-04-28T09:51:27.079Z,3.63
2019-04-28T09:57:32.913Z,2.80
2019-04-28T10:03:39.133Z,3.07
2019-04-28T10:09:45.033Z,2.80
2019-04-28T10:15:51.057Z,3.00
2019-04-28T10:21:56.845Z,2.77
2019-04-28T10:28:02.658Z,2.20
2019-04-28T10:34:08.511Z,3.20
2019-04-28T10:41:13.450Z,2.50
2019-04-28T10:47:20.934Z,2.70
2019-04-28T10:53:26.859Z,2.60
2019-04-28T10:59:32.604Z,2.70
2019-04-28T11:05:42.425Z,2.07
2019-04-28T11:11:48.478Z,2.17
2019-04-28T11:17:54.803Z,2.70
2019-04-28T11:24:00.555Z,2.50
2019-04-28T11:30:06.818Z,2.70
2019-04-28T11:36:41.774Z,2.90
2019-04-28T11:42:47.547Z,2.40
2019-04-28T11:48:53.404Z,2.90
2019-04-28T11:55:01.775Z,2.17
2019-04-28T12:01:13.088Z,2.50
2019-04-28T12:07:18.985Z,2.90
2019-04-28T12:13:44.456Z,2.57
2019-04-28T12:19:53.501Z,2.83
2019-04-28T12:25:59.344Z,2.47
2019-04-28T12:32:05.146Z,2.13
2019-04-28T12:38:11.041Z,2.60
2019-04-28T12:44:17.079Z,2.30
2019-04-28T12:50:30.696Z,2.80
2019-04-28T12:56:36.867Z,2.43
2019-04-28T13:03:01.429Z,1.60
2019-04-28T13:09:08.999Z,4.17
2019-04-28T13:15:15.113Z,1.10
2019-04-28T13:21:20.892Z,1.47
2019-04-28T13:27:26.997Z,1.70
2019-04-28T13:33:32.901Z,2.37
2019-04-28T13:39:57.769Z,1.90
2019-04-28T13:46:03.917Z,2.33
2019-04-28T13:52:09.713Z,2.10
2019-04-28T13:58:17.538Z,4.07
2019-04-28T14:04:41.063Z,2.40
2019-04-28T14:10:47.537Z,2.00
2019-04-28T14:16:55.079Z,1.70
2019-04-28T14:23:00.821Z,1.90
2019-04-28T14:29:07.208Z,1.90
2019-04-28T14:35:13.137Z,2.00
2019-04-28T14:41:18.962Z,2.10
2019-04-28T14:47:24.753Z,1.43
2019-04-28T14:53:30.772Z,1.40
2019-04-28T14:59:36.639Z,4.53
2019-04-28T15:06:01.335Z,1.20
2019-04-28T15:12:07.877Z,1.00
2019-04-28T15:18:13.655Z,1.70
2019-04-28T15:24:19.581Z,1.90
2019-04-28T15:30:25.510Z,0.70
2019-04-28T15:36:31.515Z,1.43
2019-04-28T15:42:37.220Z,0.70
2019-04-28T15:48:43.281Z,0.83
2019-04-28T15:54:49.037Z,0.50
2019-04-28T16:00:54.844Z,0.50
2019-04-28T16:07:00.661Z,1.00
2019-04-28T16:13:06.390Z,0.90
2019-04-28T16:19:12.385Z,0.90
2019-04-28T16:25:18.182Z,3.37
2019-04-28T16:31:23.949Z,1.00
2019-04-28T16:37:38.728Z,1.17
2019-04-28T16:43:51.789Z,0.83
2019-04-28T16:49:57.540Z,0.90
2019-04-28T16:56:08.895Z,0.83
2019-04-28T17:02:20.712Z,1.00
2019-04-28T17:08:26.571Z,1.03
2019-04-28T17:14:32.337Z,0.80
2019-04-28T17:20:38.352Z,0.80
2019-04-28T17:26:44.336Z,0.70
2019-04-28T17:32:50.245Z,0.60
2019-04-28T17:38:56.159Z,0.60
2019-04-28T17:45:01.995Z,0.63
2019-04-28T17:51:08.194Z,1.00
2019-04-28T17:57:14.001Z,0.93
2019-04-28T18:03:26.924Z,1.00
2019-04-28T18:09:32.924Z,0.73
2019-04-28T18:15:56.637Z,0.90
2019-04-28T18:22:02.545Z,1.17
2019-04-28T18:28:08.972Z,1.07
2019-04-28T18:34:25.758Z,1.17
2019-04-28T18:40:56.650Z,1.30
2019-04-28T18:47:02.874Z,1.40
2019-04-28T18:53:09.431Z,1.53
2019-04-28T18:59:15.426Z,1.70
2019-04-28T19:05:24.040Z,2.10
2019-04-28T19:11:52.446Z,3.07
2019-04-28T19:18:17.122Z,4.83
2019-04-28T19:24:23.448Z,3.90
2019-04-28T19:30:29.255Z,3.47
2019-04-28T19:36:35.241Z,2.43
2019-04-28T19:42:41.229Z,3.17
2019-04-28T19:48:47.510Z,3.07
2019-04-28T19:55:15.200Z,3.20
2019-04-28T20:01:26.530Z,3.37
2019-04-28T20:07:32.301Z,3.90
2019-04-28T20:13:38.366Z,3.80
2019-04-28T20:19:44.592Z,4.10
2019-04-28T20:25:50.524Z,4.33
2019-04-28T20:31:56.366Z,4.57
2019-04-28T20:38:07.713Z,4.83
2019-04-28T20:44:13.588Z,5.00
2019-04-28T20:50:19.712Z,4.97
2019-04-28T20:56:25.578Z,4.70
2019-04-28T21:02:31.564Z,5.57
2019-04-28T21:08:37.397Z,5.60
2019-04-28T21:14:43.370Z,5.20
2019-04-28T21:20:49.623Z,5.50
2019-04-28T21:26:55.572Z,5.77
2019-04-28T21:33:01.726Z,5.70
2019-04-28T21:39:09.727Z,6.30
2019-04-28T21:45:37.584Z,6.03
2019-04-28T21:51:43.528Z,6.60
2019-04-28T21:57:49.341Z,6.10
2019-04-28T22:03:55.402Z,5.63
2019-04-28T22:10:01.178Z,6.30
2019-04-28T22:16:07.423Z,7.33
2019-04-28T22:22:13.405Z,6.93
2019-04-28T22:28:19.246Z,6.50
2019-04-28T22:34:25.025Z,7.63
2019-04-28T22:40:31.351Z,6.20
2019-04-28T22:46:37.645Z,7.07
2019-04-28T22:52:44.794Z,6.97
2019-04-28T22:58:55.477Z,10.13
2019-04-28T23:05:05.019Z,6.87
2019-04-28T23:11:11.082Z,7.67
2019-04-28T23:17:18.464Z,6.37
2019-04-28T23:23:24.814Z,6.33
2019-04-28T23:29:30.848Z,6.93
2019-04-28T23:35:36.904Z,7.50
2019-04-28T23:41:48.644Z,7.83
2019-04-28T23:47:54.435Z,7.10
2019-04-28T23:54:03.843Z,7.70
